Phoenix, Arizona
Traffic Map
Current Weather Conditions
Phoenix, Arizona
Overcast Light Rain
Overcast
10°
Feels Like: 10°
Wind Chill: 10° Ceiling: 4500
Heat Index: 10° Visibility: 10mi
Dew Point: Wind: 9mph
Humidity: 93% Direction: 150° (SSE)
Pressure: 29.84in Gusts: 0mph
Raw Report DataKPHX 191351Z 15008KT 10SM -RA FEW027 BKN045 OVC055 10/09 A2984 RMK AO2 SLP099 P0004 T01000089
Traffic Incident Summary
Active as of:
Severity:
Category:
InformationThere was an issue retrieving the traffic information for this location. Please try a different location or try again shortly.
Advertisements
Track Severe Weather on mobile